createdAt,value
2017-08-17T00:01:49.473Z,19.09
2017-08-17T00:04:17.055Z,19.18
2017-08-17T00:06:44.499Z,19.14
2017-08-17T00:09:11.980Z,19.38
2017-08-17T00:11:39.442Z,19.14
2017-08-17T00:14:06.936Z,19.17
2017-08-17T00:16:34.422Z,19.20
2017-08-17T00:19:01.984Z,19.13
2017-08-17T00:21:29.536Z,19.05
2017-08-17T00:23:56.983Z,18.91
2017-08-17T00:26:24.448Z,18.93
2017-08-17T00:28:51.895Z,18.92
2017-08-17T00:31:19.456Z,18.69
2017-08-17T00:33:46.907Z,18.76
2017-08-17T00:36:15.252Z,18.92
2017-08-17T00:38:42.712Z,18.93
2017-08-17T00:41:10.183Z,18.85
2017-08-17T00:43:37.661Z,19.20
2017-08-17T00:46:05.125Z,18.96
2017-08-17T00:48:32.673Z,18.98
2017-08-17T00:51:00.138Z,19.00
2017-08-17T00:53:27.687Z,18.98
2017-08-17T00:55:55.164Z,18.92
2017-08-17T00:58:22.616Z,18.84
2017-08-17T01:00:50.155Z,18.93
2017-08-17T01:03:17.613Z,18.82
2017-08-17T01:05:45.095Z,18.94
2017-08-17T01:08:12.543Z,18.84
2017-08-17T01:10:40.040Z,18.84
2017-08-17T01:13:07.548Z,18.89
2017-08-17T01:15:35.036Z,18.62
2017-08-17T01:18:02.512Z,18.52
2017-08-17T01:20:30.015Z,18.46
2017-08-17T01:22:57.488Z,18.50
2017-08-17T01:25:25.039Z,18.52
2017-08-17T01:27:52.531Z,18.54
2017-08-17T01:30:20.048Z,18.52
2017-08-17T01:32:47.603Z,18.54
2017-08-17T01:35:15.517Z,18.64
2017-08-17T01:37:43.019Z,18.45
2017-08-17T01:40:10.473Z,18.38
2017-08-17T01:42:38.059Z,18.43
2017-08-17T01:45:05.511Z,18.30
2017-08-17T01:47:33.070Z,18.34
2017-08-17T01:50:00.619Z,18.09
2017-08-17T01:52:28.176Z,18.05
2017-08-17T01:54:55.664Z,18.20
2017-08-17T01:57:23.124Z,18.18
2017-08-17T01:59:50.655Z,17.85
2017-08-17T02:02:18.204Z,18.00
2017-08-17T02:07:05.675Z,18.09
2017-08-17T02:09:33.153Z,17.95
2017-08-17T02:12:00.660Z,17.82
2017-08-17T02:14:28.123Z,17.78
2017-08-17T02:16:55.603Z,17.81
2017-08-17T02:19:23.135Z,17.75
2017-08-17T02:21:50.592Z,17.71
2017-08-17T02:24:18.064Z,17.83
2017-08-17T02:26:45.611Z,18.08
2017-08-17T02:29:13.162Z,17.81
2017-08-17T02:31:40.656Z,17.83
2017-08-17T02:34:08.184Z,17.92
2017-08-17T02:36:35.736Z,17.86
2017-08-17T02:39:03.203Z,17.75
2017-08-17T02:41:30.751Z,17.55
2017-08-17T02:43:58.208Z,17.57
2017-08-17T02:46:25.766Z,17.64
2017-08-17T02:48:53.228Z,17.63
2017-08-17T02:51:20.694Z,17.56
2017-08-17T02:53:48.143Z,17.52
2017-08-17T02:56:15.611Z,17.59
2017-08-17T02:58:43.069Z,17.55
2017-08-17T03:01:10.535Z,17.68
2017-08-17T03:03:37.984Z,17.48
2017-08-17T03:06:05.472Z,17.53
2017-08-17T03:08:32.976Z,17.48
2017-08-17T03:11:00.421Z,17.48
2017-08-17T03:13:27.888Z,17.58
2017-08-17T03:15:55.447Z,17.57
2017-08-17T03:18:22.915Z,17.67
2017-08-17T03:20:50.371Z,17.66
2017-08-17T03:23:17.848Z,17.53
2017-08-17T03:25:45.376Z,17.17
2017-08-17T03:28:12.849Z,17.25
2017-08-17T03:30:40.292Z,17.35
2017-08-17T03:33:07.759Z,17.27
2017-08-17T03:35:35.212Z,17.22
2017-08-17T03:38:02.675Z,17.44
2017-08-17T03:40:30.217Z,17.36
2017-08-17T03:42:57.699Z,17.38
2017-08-17T03:45:25.227Z,17.23
2017-08-17T03:47:52.703Z,17.40
2017-08-17T03:50:20.155Z,17.27
2017-08-17T03:52:47.708Z,17.25
2017-08-17T03:55:15.264Z,17.22
2017-08-17T03:57:42.821Z,17.30
2017-08-17T04:00:10.280Z,17.22
2017-08-17T04:02:37.848Z,17.25
2017-08-17T04:05:05.347Z,17.34
2017-08-17T04:07:32.847Z,17.33
2017-08-17T04:10:00.312Z,17.42
2017-08-17T04:12:27.863Z,17.37
2017-08-17T04:14:56.159Z,17.32
2017-08-17T04:17:23.622Z,17.32
2017-08-17T04:19:51.157Z,17.26
2017-08-17T04:22:18.617Z,17.43
2017-08-17T04:24:46.083Z,17.30
2017-08-17T04:27:13.804Z,17.28
2017-08-17T04:29:41.282Z,17.36
2017-08-17T04:32:08.849Z,17.24
2017-08-17T04:34:36.319Z,17.26
2017-08-17T04:37:03.864Z,17.18
2017-08-17T04:39:31.329Z,17.27
2017-08-17T04:41:58.880Z,17.28
2017-08-17T04:44:26.337Z,17.29
2017-08-17T04:46:53.811Z,17.26
2017-08-17T04:49:21.259Z,17.38
2017-08-17T04:51:48.728Z,17.27
2017-08-17T04:54:16.264Z,17.34
2017-08-17T04:57:10.179Z,17.15
2017-08-17T04:59:37.628Z,17.24
2017-08-17T05:02:05.098Z,17.36
2017-08-17T05:04:32.611Z,17.51
2017-08-17T05:07:00.198Z,17.55
2017-08-17T05:09:27.708Z,17.75
2017-08-17T05:11:55.368Z,18.01
2017-08-17T05:14:22.839Z,18.26
2017-08-17T05:16:50.315Z,18.27
2017-08-17T05:19:17.918Z,18.09
2017-08-17T05:21:45.424Z,17.95
2017-08-17T05:24:12.993Z,17.89
2017-08-17T05:26:40.456Z,17.97
2017-08-17T05:29:08.354Z,18.01
2017-08-17T05:31:35.828Z,18.10
2017-08-17T05:34:03.299Z,18.14
2017-08-17T05:36:30.764Z,18.35
2017-08-17T05:38:58.243Z,18.57
2017-08-17T05:41:25.883Z,18.60
2017-08-17T05:43:53.451Z,18.40
2017-08-17T05:46:20.902Z,18.57
2017-08-17T05:48:48.371Z,18.34
2017-08-17T05:51:15.840Z,18.54
2017-08-17T05:53:43.733Z,19.12
2017-08-17T05:56:11.248Z,19.16
2017-08-17T05:58:38.807Z,19.24
2017-08-17T06:01:06.280Z,19.45
2017-08-17T06:03:33.820Z,19.80
2017-08-17T06:06:02.351Z,19.75
2017-08-17T06:08:29.807Z,19.99
2017-08-17T06:10:57.271Z,20.01
2017-08-17T06:13:24.771Z,20.23
2017-08-17T06:15:52.236Z,20.18
2017-08-17T06:18:19.785Z,20.43
2017-08-17T06:20:47.255Z,20.16
2017-08-17T06:23:14.704Z,20.03
2017-08-17T06:25:42.172Z,20.05
2017-08-17T06:28:09.713Z,20.16
2017-08-17T06:30:37.180Z,20.36
2017-08-17T06:33:04.625Z,20.03
2017-08-17T06:35:32.099Z,20.19
2017-08-17T06:37:59.591Z,20.17
2017-08-17T06:40:27.071Z,20.20
2017-08-17T06:42:54.560Z,20.21
2017-08-17T06:45:22.044Z,20.31
2017-08-17T06:47:49.671Z,20.62
2017-08-17T06:50:17.128Z,20.55
2017-08-17T06:52:44.598Z,20.76
2017-08-17T06:55:12.151Z,20.57
2017-08-17T06:57:39.860Z,20.92
2017-08-17T07:00:07.353Z,20.68
2017-08-17T07:02:34.827Z,20.78
2017-08-17T07:05:02.380Z,20.74
2017-08-17T07:07:30.061Z,21.02
2017-08-17T07:09:57.610Z,21.20
2017-08-17T07:12:25.088Z,21.31
2017-08-17T07:14:52.554Z,21.78
2017-08-17T07:17:20.032Z,21.48
2017-08-17T07:19:47.596Z,22.06
2017-08-17T07:22:15.096Z,21.80
2017-08-17T07:24:42.555Z,22.72
2017-08-17T07:27:10.112Z,22.33
2017-08-17T07:29:37.619Z,22.85
2017-08-17T07:32:05.091Z,22.04
2017-08-17T07:34:32.680Z,22.46
2017-08-17T07:37:00.235Z,22.28
2017-08-17T07:39:27.717Z,22.55
2017-08-17T07:41:55.255Z,22.68
2017-08-17T07:44:22.807Z,22.33
2017-08-17T07:46:50.264Z,22.36
2017-08-17T07:49:17.757Z,22.54
2017-08-17T07:51:45.280Z,22.44
2017-08-17T07:54:12.759Z,22.95
2017-08-17T07:56:40.295Z,22.92
2017-08-17T07:59:08.082Z,22.43
2017-08-17T08:01:35.580Z,23.00
2017-08-17T08:04:03.084Z,22.63
2017-08-17T08:06:30.551Z,22.64
2017-08-17T08:08:58.088Z,22.68
2017-08-17T08:11:25.555Z,23.00
2017-08-17T08:13:53.035Z,23.20
2017-08-17T08:16:20.564Z,23.19
2017-08-17T08:18:48.072Z,22.84
2017-08-17T08:21:15.531Z,23.18
2017-08-17T08:23:43.442Z,23.19
2017-08-17T08:26:10.917Z,23.23
2017-08-17T08:28:38.455Z,22.78
2017-08-17T08:31:05.935Z,23.34
2017-08-17T08:33:33.472Z,22.95
2017-08-17T08:36:00.947Z,23.12
2017-08-17T08:38:28.486Z,23.20
2017-08-17T08:40:56.236Z,22.96
2017-08-17T08:43:23.719Z,22.87
2017-08-17T08:45:51.268Z,23.04
2017-08-17T08:48:18.721Z,23.31
2017-08-17T08:50:46.222Z,23.07
2017-08-17T08:53:13.739Z,23.35
2017-08-17T08:55:41.296Z,23.33
2017-08-17T08:58:08.856Z,23.60
2017-08-17T09:00:36.416Z,23.87
2017-08-17T09:03:03.872Z,23.51
2017-08-17T09:05:31.347Z,23.34
2017-08-17T09:07:58.885Z,23.37
2017-08-17T09:10:26.450Z,23.41
2017-08-17T09:12:54.002Z,23.48
2017-08-17T09:15:21.487Z,23.50
2017-08-17T09:17:49.019Z,23.71
2017-08-17T09:20:16.512Z,23.66
2017-08-17T09:22:44.063Z,23.73
2017-08-17T09:25:15.441Z,23.98
2017-08-17T09:27:43.012Z,24.38
2017-08-17T09:30:15.161Z,24.51
2017-08-17T09:32:42.878Z,24.47
2017-08-17T09:35:10.327Z,24.53
2017-08-17T09:37:37.803Z,24.87
2017-08-17T09:40:05.388Z,24.91
2017-08-17T09:42:32.903Z,24.89
2017-08-17T09:45:00.360Z,24.90
2017-08-17T09:47:28.496Z,25.58
2017-08-17T09:49:56.345Z,25.44
2017-08-17T09:52:24.110Z,25.59
2017-08-17T09:54:51.703Z,26.19
2017-08-17T09:57:19.271Z,25.70
2017-08-17T09:59:46.845Z,25.53
2017-08-17T10:02:14.394Z,25.79
2017-08-17T10:04:41.953Z,25.56
2017-08-17T10:07:09.403Z,25.68
2017-08-17T10:09:36.880Z,25.95
2017-08-17T10:12:04.425Z,25.75
2017-08-17T10:14:31.980Z,26.07
2017-08-17T10:16:59.431Z,26.09
2017-08-17T10:19:26.997Z,26.25
2017-08-17T10:21:54.442Z,25.92
2017-08-17T10:24:22.070Z,25.88
2017-08-17T10:26:51.213Z,25.68
2017-08-17T10:29:18.719Z,26.16
2017-08-17T10:31:46.774Z,26.54
2017-08-17T10:34:14.964Z,26.47
2017-08-17T10:36:42.599Z,26.60
2017-08-17T10:39:11.157Z,26.71
2017-08-17T10:41:38.635Z,27.05
2017-08-17T10:44:06.635Z,27.19
2017-08-17T10:46:34.335Z,27.20
2017-08-17T10:49:02.654Z,27.35
2017-08-17T10:51:30.487Z,27.45
2017-08-17T10:53:58.279Z,27.55
2017-08-17T10:56:26.168Z,27.43
2017-08-17T10:58:54.398Z,27.26
2017-08-17T11:01:22.052Z,27.59
2017-08-17T11:03:49.917Z,27.44
2017-08-17T11:06:17.938Z,27.10
2017-08-17T11:08:46.015Z,27.28
2017-08-17T11:11:13.640Z,27.20
2017-08-17T11:13:41.997Z,27.56
2017-08-17T11:16:09.862Z,27.73
2017-08-17T11:18:37.987Z,27.75
2017-08-17T11:21:05.854Z,27.69
2017-08-17T11:23:33.514Z,27.86
2017-08-17T11:26:01.808Z,28.37
2017-08-17T11:28:32.241Z,27.89
2017-08-17T11:30:59.925Z,27.66
2017-08-17T11:33:27.700Z,27.72
2017-08-17T11:35:55.862Z,28.44
2017-08-17T11:38:25.193Z,28.36
2017-08-17T11:40:53.007Z,28.43
2017-08-17T11:43:21.400Z,28.31
2017-08-17T11:45:48.867Z,27.81
2017-08-17T11:48:16.994Z,28.01
2017-08-17T11:50:44.707Z,27.64
2017-08-17T11:53:14.156Z,27.74
2017-08-17T11:55:41.838Z,27.95
2017-08-17T11:58:09.783Z,27.96
2017-08-17T12:00:37.243Z,27.92
2017-08-17T12:03:06.008Z,28.05
2017-08-17T12:05:35.250Z,28.29
2017-08-17T12:08:03.976Z,28.25
2017-08-17T12:10:32.883Z,28.67
2017-08-17T12:13:00.342Z,28.43
2017-08-17T12:15:27.859Z,28.83
2017-08-17T12:17:55.302Z,28.55
2017-08-17T12:20:22.783Z,28.14
2017-08-17T12:22:50.345Z,28.02
2017-08-17T12:25:17.799Z,27.79
2017-08-17T12:27:45.263Z,27.98
2017-08-17T12:30:12.804Z,27.87
2017-08-17T12:32:40.272Z,27.49
2017-08-17T12:35:07.828Z,27.65
2017-08-17T12:37:35.376Z,27.84
2017-08-17T12:40:02.819Z,27.88
2017-08-17T12:42:30.392Z,27.88
2017-08-17T12:44:58.076Z,27.81
2017-08-17T12:47:25.564Z,27.57
2017-08-17T12:49:53.010Z,27.70
2017-08-17T12:52:20.525Z,27.80
2017-08-17T12:54:48.088Z,27.79
2017-08-17T12:57:15.554Z,27.94
2017-08-17T12:59:43.131Z,28.29
2017-08-17T13:02:10.589Z,28.54
2017-08-17T13:04:38.075Z,28.52
2017-08-17T13:07:05.580Z,28.84
2017-08-17T13:09:33.056Z,28.52
2017-08-17T13:12:00.518Z,28.92
2017-08-17T13:14:27.988Z,29.00
2017-08-17T13:16:55.512Z,29.01
2017-08-17T13:19:23.015Z,28.78
2017-08-17T13:21:50.467Z,28.86
2017-08-17T13:24:17.974Z,28.47
2017-08-17T13:26:45.448Z,28.36
2017-08-17T13:29:13.000Z,28.35
2017-08-17T13:31:40.550Z,28.01
2017-08-17T13:34:08.003Z,27.84
2017-08-17T13:36:35.563Z,27.96
2017-08-17T13:39:03.016Z,27.99
2017-08-17T13:41:30.579Z,27.95
2017-08-17T13:43:58.027Z,27.79
2017-08-17T13:46:25.496Z,27.84
2017-08-17T13:48:53.355Z,27.94
2017-08-17T13:51:20.823Z,28.01
2017-08-17T13:53:48.369Z,28.29
2017-08-17T13:56:15.923Z,28.43
2017-08-17T13:58:43.384Z,28.21
2017-08-17T14:01:11.454Z,28.15
2017-08-17T14:03:39.013Z,27.91
2017-08-17T14:06:06.456Z,27.86
2017-08-17T14:08:34.063Z,27.98
2017-08-17T14:11:01.515Z,28.10
2017-08-17T14:13:29.054Z,27.80
2017-08-17T14:15:56.511Z,27.71
2017-08-17T14:18:24.050Z,27.40
2017-08-17T14:20:51.532Z,27.67
2017-08-17T14:23:18.999Z,27.82
2017-08-17T14:25:46.540Z,27.71
2017-08-17T14:28:14.016Z,27.79
2017-08-17T14:30:41.471Z,27.84
2017-08-17T14:33:08.919Z,27.79
2017-08-17T14:35:36.463Z,27.69
2017-08-17T14:38:03.907Z,27.87
2017-08-17T14:40:31.383Z,27.79
2017-08-17T14:42:58.932Z,27.64
2017-08-17T14:45:26.404Z,27.57
2017-08-17T14:47:54.204Z,27.79
2017-08-17T14:50:21.723Z,27.45
2017-08-17T14:52:49.299Z,27.36
2017-08-17T14:55:16.824Z,27.36
2017-08-17T14:57:44.271Z,27.48
2017-08-17T15:00:11.744Z,27.21
2017-08-17T15:02:39.204Z,27.21
2017-08-17T15:05:06.748Z,27.31
2017-08-17T15:07:34.215Z,27.05
2017-08-17T15:10:01.691Z,27.12
2017-08-17T15:12:29.143Z,27.08
2017-08-17T15:14:56.610Z,26.96
2017-08-17T15:17:24.135Z,26.93
2017-08-17T15:19:51.628Z,27.03
2017-08-17T15:22:19.164Z,26.84
2017-08-17T15:24:46.714Z,26.93
2017-08-17T15:27:14.220Z,26.95
2017-08-17T15:29:41.672Z,26.70
2017-08-17T15:32:09.186Z,26.73
2017-08-17T15:34:36.631Z,26.70
2017-08-17T15:37:04.098Z,26.64
2017-08-17T15:39:31.588Z,26.65
2017-08-17T15:41:59.115Z,26.54
2017-08-17T15:44:26.564Z,26.51
2017-08-17T15:46:54.044Z,26.44
2017-08-17T15:49:21.592Z,26.32
2017-08-17T15:51:49.059Z,26.25
2017-08-17T15:54:17.396Z,26.46
2017-08-17T15:56:44.991Z,26.47
2017-08-17T15:59:12.563Z,26.66
2017-08-17T16:01:40.096Z,26.49
2017-08-17T16:04:07.551Z,26.50
2017-08-17T16:06:35.111Z,26.69
2017-08-17T16:09:02.566Z,26.71
2017-08-17T16:11:30.084Z,26.60
2017-08-17T16:13:57.636Z,26.60
2017-08-17T16:16:25.103Z,26.65
2017-08-17T16:18:52.587Z,26.63
2017-08-17T16:21:20.049Z,26.66
2017-08-17T16:23:47.523Z,26.68
2017-08-17T16:26:15.050Z,26.62
2017-08-17T16:28:42.691Z,26.56
2017-08-17T16:31:10.180Z,26.70
2017-08-17T16:33:37.747Z,26.54
2017-08-17T16:36:05.210Z,26.48
2017-08-17T16:38:32.695Z,26.42
2017-08-17T16:41:00.231Z,26.62
2017-08-17T16:43:27.718Z,26.18
2017-08-17T16:45:55.259Z,26.25
2017-08-17T16:48:22.776Z,26.18
2017-08-17T16:50:50.262Z,26.10
2017-08-17T16:53:18.034Z,25.97
2017-08-17T16:55:45.528Z,25.96
2017-08-17T16:58:12.974Z,25.86
2017-08-17T17:00:40.458Z,25.98
2017-08-17T17:03:07.924Z,25.92
2017-08-17T17:05:35.499Z,26.17
2017-08-17T17:08:03.004Z,26.03
2017-08-17T17:10:30.511Z,25.93
2017-08-17T17:12:57.986Z,25.73
2017-08-17T17:15:25.528Z,25.64
2017-08-17T17:17:52.981Z,25.65
2017-08-17T17:20:20.451Z,26.22
2017-08-17T17:22:47.999Z,25.76
2017-08-17T17:25:15.472Z,25.46
2017-08-17T17:27:43.028Z,25.35
2017-08-17T17:30:10.489Z,25.75
2017-08-17T17:32:37.935Z,25.43
2017-08-17T17:35:05.407Z,25.50
2017-08-17T17:37:33.156Z,25.77
2017-08-17T17:40:00.631Z,25.96
2017-08-17T17:42:28.091Z,26.01
2017-08-17T17:44:55.549Z,26.11
2017-08-17T17:47:23.020Z,26.08
2017-08-17T17:49:50.491Z,25.60
2017-08-17T17:52:17.962Z,25.31
2017-08-17T17:54:45.440Z,25.68
2017-08-17T17:57:12.916Z,25.27
2017-08-17T17:59:40.456Z,25.67
2017-08-17T18:02:07.992Z,25.49
2017-08-17T18:04:35.447Z,25.66
2017-08-17T18:07:02.913Z,25.62
2017-08-17T18:09:30.393Z,25.36
2017-08-17T18:11:58.098Z,25.41
2017-08-17T18:14:25.736Z,25.53
2017-08-17T18:16:53.232Z,25.41
2017-08-17T18:19:20.774Z,25.31
2017-08-17T18:21:48.240Z,25.66
2017-08-17T18:24:15.704Z,25.52
2017-08-17T18:26:43.408Z,25.21
2017-08-17T18:29:10.915Z,25.37
2017-08-17T18:31:38.373Z,25.14
2017-08-17T18:34:05.878Z,25.00
2017-08-17T18:36:33.432Z,24.90
2017-08-17T18:39:01.700Z,24.87
2017-08-17T18:41:29.159Z,24.79
2017-08-17T18:43:56.630Z,24.66
2017-08-17T18:46:24.096Z,24.59
2017-08-17T18:48:51.568Z,24.36
2017-08-17T18:51:19.022Z,24.39
2017-08-17T18:53:46.525Z,24.30
2017-08-17T18:56:13.976Z,24.22
2017-08-17T18:58:41.465Z,24.19
2017-08-17T19:01:09.012Z,24.12
2017-08-17T19:03:36.480Z,24.07
2017-08-17T19:06:03.940Z,24.03
2017-08-17T19:08:31.404Z,24.02
2017-08-17T19:10:58.946Z,24.09
2017-08-17T19:13:26.391Z,24.01
2017-08-17T19:15:53.857Z,23.80
2017-08-17T19:18:21.308Z,23.68
2017-08-17T19:20:48.770Z,23.62
2017-08-17T19:23:16.235Z,23.43
2017-08-17T19:25:43.703Z,23.20
2017-08-17T19:28:11.250Z,23.19
2017-08-17T19:30:38.736Z,22.92
2017-08-17T19:33:06.187Z,22.75
2017-08-17T19:35:33.664Z,22.61
2017-08-17T19:38:01.173Z,22.72
2017-08-17T19:40:28.661Z,22.58
2017-08-17T19:42:56.188Z,22.34
2017-08-17T19:45:23.748Z,22.29
2017-08-17T19:47:51.190Z,22.14
2017-08-17T19:50:18.659Z,22.04
2017-08-17T19:52:46.107Z,22.02
2017-08-17T19:55:13.854Z,22.13
2017-08-17T19:57:41.327Z,21.66
2017-08-17T20:00:08.783Z,21.81
2017-08-17T20:02:36.343Z,21.85
2017-08-17T20:05:03.791Z,21.66
2017-08-17T20:07:31.410Z,21.86
2017-08-17T20:09:58.945Z,21.78
2017-08-17T20:12:26.730Z,21.97
2017-08-17T20:14:54.187Z,21.93
2017-08-17T20:17:21.759Z,22.07
2017-08-17T20:19:49.259Z,22.27
2017-08-17T20:22:16.732Z,22.24
2017-08-17T20:24:44.182Z,22.39
2017-08-17T20:27:11.660Z,22.23
2017-08-17T20:29:39.112Z,22.37
2017-08-17T20:32:06.637Z,22.27
2017-08-17T20:34:34.098Z,22.08
2017-08-17T20:37:01.600Z,21.89
2017-08-17T20:39:29.493Z,22.00
2017-08-17T20:41:57.284Z,22.04
2017-08-17T20:44:24.740Z,21.97
2017-08-17T20:46:52.200Z,21.80
2017-08-17T20:49:19.761Z,21.68
2017-08-17T20:51:47.317Z,21.57
2017-08-17T20:54:14.784Z,21.39
2017-08-17T20:56:42.332Z,20.89
2017-08-17T20:59:09.795Z,20.73
2017-08-17T21:01:37.255Z,20.86
2017-08-17T21:04:06.072Z,21.02
2017-08-17T21:06:33.854Z,20.92
2017-08-17T21:09:01.904Z,20.61
2017-08-17T21:11:29.469Z,20.55
2017-08-17T21:13:56.979Z,20.67
2017-08-17T21:16:24.440Z,20.40
2017-08-17T21:18:51.913Z,20.78
2017-08-17T21:21:19.456Z,20.66
2017-08-17T21:23:46.927Z,20.81
2017-08-17T21:26:14.486Z,20.67
2017-08-17T21:28:41.928Z,20.96
2017-08-17T21:31:09.403Z,21.06
2017-08-17T21:33:36.847Z,21.08
2017-08-17T21:36:04.320Z,21.08
2017-08-17T21:38:32.198Z,20.93
2017-08-17T21:40:59.696Z,21.04
2017-08-17T21:43:27.143Z,20.68
2017-08-17T21:45:54.631Z,20.47
2017-08-17T21:48:22.094Z,20.43
2017-08-17T21:50:49.845Z,20.25
2017-08-17T21:53:17.292Z,19.98
2017-08-17T21:55:44.767Z,20.21
2017-08-17T21:58:12.326Z,19.78
2017-08-17T22:00:39.796Z,20.13
2017-08-17T22:03:07.341Z,19.93
2017-08-17T22:05:34.831Z,20.15
2017-08-17T22:08:02.284Z,20.26
2017-08-17T22:10:29.767Z,20.51
2017-08-17T22:12:57.231Z,20.67
2017-08-17T22:15:24.680Z,20.38
2017-08-17T22:17:52.159Z,20.46
2017-08-17T22:20:19.637Z,20.32
2017-08-17T22:22:47.105Z,20.32
2017-08-17T22:25:14.662Z,20.39
2017-08-17T22:27:42.135Z,20.27
2017-08-17T22:30:09.591Z,20.17
2017-08-17T22:32:37.073Z,19.72
2017-08-17T22:35:04.584Z,19.83
2017-08-17T22:37:32.046Z,19.81
2017-08-17T22:39:59.596Z,20.04
2017-08-17T22:42:27.257Z,20.02
2017-08-17T22:44:54.703Z,19.63
2017-08-17T22:47:22.171Z,19.36
2017-08-17T22:49:49.728Z,19.48
2017-08-17T22:52:17.175Z,19.31
2017-08-17T22:54:45.205Z,19.29
2017-08-17T22:57:12.714Z,19.28
2017-08-17T22:59:40.271Z,19.49
2017-08-17T23:02:07.883Z,19.37
2017-08-17T23:04:35.390Z,19.55
2017-08-17T23:07:02.959Z,19.35
2017-08-17T23:09:30.427Z,19.41
2017-08-17T23:11:57.964Z,19.18
2017-08-17T23:14:25.434Z,19.28
2017-08-17T23:16:52.975Z,19.27
2017-08-17T23:19:20.539Z,19.28
2017-08-17T23:21:47.992Z,19.55
2017-08-17T23:24:15.564Z,19.53
2017-08-17T23:26:43.020Z,19.61
2017-08-17T23:29:10.491Z,19.31
2017-08-17T23:31:37.950Z,19.20
2017-08-17T23:34:05.460Z,19.31
2017-08-17T23:36:32.917Z,19.48
2017-08-17T23:39:00.360Z,19.42
2017-08-17T23:41:27.828Z,19.32
2017-08-17T23:43:55.274Z,19.38
2017-08-17T23:46:22.771Z,19.38
2017-08-17T23:48:50.219Z,19.41
2017-08-17T23:51:17.683Z,19.40
2017-08-17T23:53:45.156Z,19.49
2017-08-17T23:56:12.618Z,19.47
2017-08-17T23:58:40.076Z,19.37
